Utah County RPA :: 1DEVILSCREEK

liberation: 2020-09-05  07:30     latitude: 42.302800     longitude: -112.207733 216 birds
# LOFT PRING MILES ARRIVAL SPEED ToWin
1 Ross Johnson AU20-NEBO-42 152.587 2020-09-05 10:54:28.802 1313.343 00:00:00
2 Ross Johnson AU20-NEBO-32 152.587 2020-09-05 10:54:29.442 1313.275 00:00:01
3 Peery Loft AU20-UCA-0025 157.772 2020-09-05 11:01:46.934 1311.154 00:00:21
4 Peery Loft AU20-UCA-0019 157.772 2020-09-05 11:01:49.948 1310.844 00:00:24
5 Riley Allred AU20-UCA-106 153.856 2020-09-05 10:57:55.182 1302.359 00:01:44
6 Craig Allred AU20-UVI-304 153.856 2020-09-05 10:58:04.711 1301.364 00:01:54
7 Iron Will AU20-UCA-0260 157.409 2020-09-05 11:03:23.688 1298.252 00:02:27
8 Riley Allred AU20-UCA-101 153.856 2020-09-05 10:59:21.784 1293.380 00:03:11
9 Riley Allred AU20-UCA-102 153.856 2020-09-05 10:59:29.891 1292.546 00:03:19
10 Ross Johnson AU20-NEBO-56 152.587 2020-09-05 10:58:34.145 1287.595 00:04:05
11 Iron Will AU20-UCA-0039 157.409 2020-09-05 11:05:22.057 1286.360 00:04:25
12 Craig Allred AU20-UVI-329 153.856 2020-09-05 11:01:18.366 1281.487 00:05:08
13 Craig Allred AU20-UVI-367 153.856 2020-09-05 11:01:40.745 1279.229 00:05:30
14 Peery Loft AU20-UCA-0044 157.772 2020-09-05 11:07:10.026 1278.643 00:05:44
15 Cole Allred AU20-NLI-2021 153.856 2020-09-05 11:01:51.572 1278.139 00:05:41
16 Peery Loft AU20-UCA-0066 157.772 2020-09-05 11:07:31.020 1276.586 00:06:05
17 Peery Loft AU20-UCA-0004 157.772 2020-09-05 11:07:38.833 1275.823 00:06:13
18 Peery Loft AU20-UCA-0041 157.772 2020-09-05 11:09:15.820 1266.417 00:07:50
19 Peery Loft AU20-UCA-0067 157.772 2020-09-05 11:09:41.548 1263.945 00:08:16
20 Dry Creek Lofts AU20-NEBO-303 159.355 2020-09-05 11:13:26.945 1255.164 00:09:54
21 Ross Johnson AU20-NEBO-15 152.587 2020-09-05 11:04:34.112 1251.593 00:10:05
22 Ross Johnson AU20-NEBO-28 152.587 2020-09-05 11:04:34.854 1251.521 00:10:06
23 Ross Johnson AU-20 NEBO 12 152.587 2020-09-05 11:04:50.518 1250.000 00:10:22
24 Dry Creek Lofts AU20-NEBO-319 159.355 2020-09-05 11:16:07.538 1240.307 00:12:35
25 Dry Creek Lofts AU20-NEBO-333 159.355 2020-09-05 11:16:10.479 1240.038 00:12:37
26 Dry Creek Lofts AU20-NEBO-346 159.355 2020-09-05 11:16:12.605 1239.844 00:12:40
27 Ross Johnson AU20-NEBO-33 152.587 2020-09-05 11:07:34.649 1234.285 00:13:06
28 Dry Creek Lofts AU20-NEBO-360 159.355 2020-09-05 11:18:17.891 1228.504 00:14:45
29 Sherwood Loft AU20-UCA-475 161.362 2020-09-05 11:22:30.344 1221.462 00:16:16
30 Sherwood Loft AU20-NEBO-279 161.362 2020-09-05 11:22:32.137 1221.305 00:16:18
31 Riley Allred AU20-UCA-156 153.856 2020-09-05 11:11:47.851 1220.870 00:15:37
32 Riley Allred AU20-UCA-109 153.856 2020-09-05 11:12:17.292 1218.175 00:16:06
33 Craig Allred AU20-UVI-361 153.856 2020-09-05 11:12:18.043 1218.107 00:16:07
34 Cole Allred AU20-NLI-2008 153.856 2020-09-05 11:12:29.913 1217.024 00:16:19
35 Peery Loft AU20-UCA-0007 157.772 2020-09-05 11:18:24.570 1215.708 00:16:59
36 Iron Will AU20-UCA-0222 157.409 2020-09-05 11:17:55.121 1215.522 00:16:59
37 Ross Johnson AU20-NEBO-29 152.587 2020-09-05 11:11:38.621 1211.641 00:17:10
38 Ross Johnson AU20-NEBO-13 152.587 2020-09-05 11:11:38.738 1211.630 00:17:10
39 Dry Creek Lofts AU20-NEBO-328 159.355 2020-09-05 11:21:53.997 1209.423 00:18:21
40 Craig Allred AU20-UVI-359 153.856 2020-09-05 11:14:14.852 1207.532 00:18:04
41 Peery Loft AU20-UCA-0005 157.772 2020-09-05 11:20:35.394 1204.212 00:19:10
42 Ross Johnson AU20-NEBO-25 152.587 2020-09-05 11:13:14.931 1202.929 00:18:46
43 Iron Will AU20-UCA-0261 157.409 2020-09-05 11:20:21.000 1202.692 00:19:24
44 Craig Allred AU20-UVI-341 153.856 2020-09-05 11:15:14.352 1202.215 00:19:04
45 Riley Allred AU20-UCA-119 153.856 2020-09-05 11:15:14.493 1202.203 00:19:04
46 Ross Johnson AU20 -NEBO-36 152.587 2020-09-05 11:14:29.102 1196.305 00:20:00
47 Sherwood Loft AU20-UCA-487 161.362 2020-09-05 11:27:41.145 1194.842 00:21:27
48 Cole Allred AU20-NLI-2124 153.856 2020-09-05 11:17:19.382 1191.195 00:21:09
49 Riley Allred AU20-UCA-147 153.856 2020-09-05 11:17:20.899 1191.062 00:21:10
50 Peery Loft AU20-UCA-0031 157.772 2020-09-05 11:23:53.595 1187.205 00:22:28
51 Riley Allred AU20-UCA-166 153.856 2020-09-05 11:18:09.514 1186.832 00:21:59
52 Peery Loft AU20-UCA-0008 157.772 2020-09-05 11:24:21.434 1184.854 00:22:56
53 Iron Will AU20-UCA-0220 157.409 2020-09-05 11:23:49.281 1184.837 00:22:53
54 Peery Loft AU20-UCA-0033 157.772 2020-09-05 11:24:22.845 1184.736 00:22:57
55 Iron Will AU20-UCA-0227 157.409 2020-09-05 11:23:50.494 1184.735 00:22:54
56 Peery Loft AU20-UCA-0001 157.772 2020-09-05 11:24:39.209 1183.359 00:23:13
57 Ross Johnson AU20-NEBO-20 152.587 2020-09-05 11:19:36.322 1169.626 00:25:08
58 Iron Will AU20-UCA-0201 157.409 2020-09-05 11:27:02.555 1168.736 00:26:06
59 Peery Loft AU20-UCA-0012 157.772 2020-09-05 11:27:39.708 1168.380 00:26:14
60 Sherwood Loft AU20-UCA-427 161.362 2020-09-05 11:36:47.080 1150.788 00:30:33
61 Dry Creek Lofts AU20-NEBO-320 159.355 2020-09-05 11:33:44.819 1150.641 00:30:12
62 Sherwood Loft AU20-UCA-479 161.362 2020-09-05 11:36:51.361 1150.456 00:30:37
63 Iron Will AU20-UCA-0037 157.409 2020-09-05 11:31:38.346 1146.504 00:30:42
64 Iron Will AU20-UCA-0204 157.409 2020-09-05 11:31:44.198 1146.041 00:30:48
65 Cole Allred AU20-NLI-2015 153.856 2020-09-05 11:26:57.134 1142.787 00:30:46
66 Sherwood Loft AU20-UCA-449 161.362 2020-09-05 11:38:38.388 1142.202 00:32:24
67 Iron Will AU20-UCA-0225 157.409 2020-09-05 11:34:42.914 1132.092 00:33:46
68 Riley Allred AU20-UCA-160 153.856 2020-09-05 11:32:56.583 1114.607 00:36:46
69 Ross Johnson AU20-NEBO-34 152.587 2020-09-05 11:31:02.853 1114.106 00:36:34
70 Peery Loft AU20-UCA-0003 157.772 2020-09-05 11:39:24.577 1113.346 00:37:59
71 Peery Loft AU20-UCA-0034 157.772 2020-09-05 11:39:28.101 1113.084 00:38:02
72 Iron Will AU20-UCA-0234 157.409 2020-09-05 11:39:10.556 1111.826 00:38:14
73 Riley Allred AU20-UCA-161 153.856 2020-09-05 11:33:34.375 1111.725 00:37:24
74 Iron Will AU20-UCA-0277 157.409 2020-09-05 11:39:15.050 1111.492 00:38:18
75 Sherwood Loft AU20-NEBO-649 161.362 2020-09-05 11:45:36.736 1111.046 00:39:22
76 Sherwood Loft AU20-UCA-483 161.362 2020-09-05 11:46:48.208 1105.892 00:40:34
77 Sherwood Loft AU20-UCA-409 161.362 2020-09-05 11:47:50.464 1101.442 00:41:36
78 Peery Loft AU20-UCA-0042 157.772 2020-09-05 11:43:36.495 1094.914 00:42:11
79 Iron Will AU20-UCA-0274 157.409 2020-09-05 11:43:22.739 1093.383 00:42:26
80 Craig Allred AU20-UVI-366 153.856 2020-09-05 11:38:17.499 1090.596 00:42:07
81 Iron Will AU20-UCA-0205 157.409 2020-09-05 11:44:56.181 1086.703 00:44:00
82 Ross Johnson AU20-NEBO-40 152.587 2020-09-05 11:38:45.455 1079.575 00:44:17
83 Sherwood Loft AU20-NEBO-255 161.362 2020-09-05 11:53:04.366 1079.537 00:46:50
84 Sherwood Loft AU20-UCA-417 161.362 2020-09-05 11:53:47.451 1076.599 00:47:33
85 Riley Allred AU20-UCA-150 153.856 2020-09-05 11:41:49.386 1075.302 00:45:39
86 Cole Allred AU20-HARM-1695 153.856 2020-09-05 11:42:21.206 1073.043 00:46:10
87 Iron Will AU20-UCA-0266 157.409 2020-09-05 11:48:36.443 1071.277 00:47:40
88 Craig Allred AU20-UVI-303 153.856 2020-09-05 11:46:27.228 1055.886 00:50:16
89 Riley Allred AU20-UCA-163 153.856 2020-09-05 11:46:30.912 1055.633 00:50:20
90 Riley Allred AU20-UCA-170 153.856 2020-09-05 11:48:18.249 1048.322 00:52:07
91 Iron Will AU20-UCA-0281 157.409 2020-09-05 11:57:55.066 1034.049 00:56:59
92 Iron Will AU20-UCA-0262 157.409 2020-09-05 11:58:28.565 1031.899 00:57:32
93 Sherwood Loft AU20-UCA-477 161.362 2020-09-05 12:09:40.232 1015.470 01:03:26
94 Sherwood Loft AU20-NEBO-269 161.362 2020-09-05 12:10:22.368 1012.926 01:04:08
95 Craig Allred AU20-UVI-358 153.856 2020-09-05 12:00:09.526 1002.322 01:03:59
96 Sherwood Loft AU20-NEBO-225 161.362 2020-09-05 12:14:50.014 997.063 01:08:36
97 Iron Will AU20-UCA-0250 157.409 2020-09-05 12:10:33.133 987.482 01:09:37
98 Iron Will AU20-UCA-233 157.409 2020-09-05 12:10:47.239 986.655 01:09:51
99 Iron Will AU20-UCA-0290 157.409 2020-09-05 12:12:16.212 981.472 01:11:20
100 Iron Will AU20-UCA-0246 157.409 2020-09-05 12:14:06.447 975.125 01:13:10
101 Ross Johnson AU20-NEBO-37 152.587 2020-09-05 12:11:09.320 955.175 01:16:41
102 Craig Allred AU20-UVI-357 153.856 2020-09-05 12:13:35.497 954.845 01:17:25
103 Iron Will AU20-UCA-0212 157.409 2020-09-05 12:20:56.323 952.229 01:20:00
104 Sherwood Loft AU20-NEBO-278 161.362 2020-09-05 12:30:44.192 944.338 01:24:30
105 Sherwood Loft AU20-NEBO-648 161.362 2020-09-05 12:31:23.847 942.267 01:25:09
106 Riley Allred AU20-UCA-153 153.856 2020-09-05 12:18:38.615 938.133 01:22:28
107 Riley Allred AU20-UCA-116 153.856 2020-09-05 12:19:04.924 936.710 01:22:54
108 Dry Creek Lofts AU20-NEBO-301 159.355 2020-09-05 12:29:53.692 935.212 01:26:21
109 Cole Allred AU20-NLI-2004 153.856 2020-09-05 12:22:07.728 926.940 01:25:57
110 Dry Creek Lofts AU20-NEBO-338 159.355 2020-09-05 12:38:11.675 910.026 01:34:39
111 Riley Allred AU20-UCA-127 153.856 2020-09-05 12:35:01.349 887.757 01:38:51
112 Sherwood Loft AU20-UCA-445 161.362 2020-09-05 12:59:14.034 862.599 01:53:00
113 Sherwood Loft AU20-NEBO-230 161.362 2020-09-05 12:59:20.036 862.337 01:53:06
114 Sherwood Loft AU20-NEBO-664 161.362 2020-09-05 13:19:58.238 811.488 02:13:44
115 Iron Will AU20-UCA-0258 157.409 2020-09-05 13:23:05.325 784.619 02:22:09
116 Sherwood Loft AU20-UCA-474 161.362 2020-09-05 13:50:09.509 747.049 02:43:55
117 Cole Allred AU20-HARM-2616 153.856 2020-09-05 14:21:16.867 658.396 03:25:06
118 Sherwood Loft AU20-NEBO-284 161.362 2020-09-05 14:56:01.233 636.735 03:49:47
119 Sherwood Loft AU20-UCA-450 161.362 2020-09-05 14:58:26.790 633.290 03:52:12
120 Riley Allred AU20-UCA-107 153.856 2020-09-05 14:46:59.396 619.662 03:50:49
Cole Allred AU20-HARM-1689 0 0000-00-00 00:00:00.000 0.000 00:00:00
Cole Allred AU20-HARM-1694 0 0000-00-00 00:00:00.000 0.000 00:00:00
Cole Allred AU20-HARM-2617 0 0000-00-00 00:00:00.000 0.000 00:00:00
Cole Allred AU20-NLI-2005 0 0000-00-00 00:00:00.000 0.000 00:00:00
Cole Allred AU20-NLI-2011 0 0000-00-00 00:00:00.000 0.000 00:00:00
Cole Allred AU20-NLI-2121 0 0000-00-00 00:00:00.000 0.000 00:00:00
Cole Allred AU20-NLI-2413 0 0000-00-00 00:00:00.000 0.000 00:00:00
Cole Allred AU20-NLI-2417 0 0000-00-00 00:00:00.000 0.000 00:00:00
Cole Allred AU20-NLI-2419 0 0000-00-00 00:00:00.000 0.000 00:00:00
Cole Allred AU20-NLI-2503 0 0000-00-00 00:00:00.000 0.000 00:00:00
Cole Allred AU20-NLI-2525 0 0000-00-00 00:00:00.000 0.000 00:00:00
Craig Allred AU20-UVI-310 0 0000-00-00 00:00:00.000 0.000 00:00:00
Craig Allred AU20-UVI-311 0 0000-00-00 00:00:00.000 0.000 00:00:00
Craig Allred AU20-UVI-314 0 0000-00-00 00:00:00.000 0.000 00:00:00
Craig Allred AU20-UVI-316 0 0000-00-00 00:00:00.000 0.000 00:00:00
Craig Allred AU20-UVI-323 0 0000-00-00 00:00:00.000 0.000 00:00:00
Craig Allred AU20-UVI-339 0 0000-00-00 00:00:00.000 0.000 00:00:00
Craig Allred AU20-UVI-346 0 0000-00-00 00:00:00.000 0.000 00:00:00
Craig Allred AU20-UVI-350 0 0000-00-00 00:00:00.000 0.000 00:00:00
Craig Allred AU20-UVI-352 0 0000-00-00 00:00:00.000 0.000 00:00:00
Craig Allred AU20-UVI-355 0 0000-00-00 00:00:00.000 0.000 00:00:00
Craig Allred AU20-UVI-360 0 0000-00-00 00:00:00.000 0.000 00:00:00
Dry Creek Lofts AU-20-NEBO-323 0 0000-00-00 00:00:00.000 0.000 00:00:00
Dry Creek Lofts AU20-NEB0-334 0 0000-00-00 00:00:00.000 0.000 00:00:00
Dry Creek Lofts AU20-NEBO-302 0 0000-00-00 00:00:00.000 0.000 00:00:00
Dry Creek Lofts AU20-NEBO-305 0 0000-00-00 00:00:00.000 0.000 00:00:00
Dry Creek Lofts AU20-NEBO-308 0 0000-00-00 00:00:00.000 0.000 00:00:00
Dry Creek Lofts AU20-NEBO-310 0 0000-00-00 00:00:00.000 0.000 00:00:00
Dry Creek Lofts AU20-NEBO-311 0 0000-00-00 00:00:00.000 0.000 00:00:00
Dry Creek Lofts AU20-NEBO-314 0 0000-00-00 00:00:00.000 0.000 00:00:00
Dry Creek Lofts AU20-NEBO-315 0 0000-00-00 00:00:00.000 0.000 00:00:00
Dry Creek Lofts AU20-NEBO-321 0 0000-00-00 00:00:00.000 0.000 00:00:00
Dry Creek Lofts AU20-NEBO-322 0 0000-00-00 00:00:00.000 0.000 00:00:00
Dry Creek Lofts AU20-NEBO-325 0 0000-00-00 00:00:00.000 0.000 00:00:00
Dry Creek Lofts AU20-NEBO-327 0 0000-00-00 00:00:00.000 0.000 00:00:00
Dry Creek Lofts AU20-NEBO-329 0 0000-00-00 00:00:00.000 0.000 00:00:00
Dry Creek Lofts AU20-NEBO-330 0 0000-00-00 00:00:00.000 0.000 00:00:00
Dry Creek Lofts AU20-NEBO-332 0 0000-00-00 00:00:00.000 0.000 00:00:00
Dry Creek Lofts AU20-NEBO-336 0 0000-00-00 00:00:00.000 0.000 00:00:00
Dry Creek Lofts AU20-NEBO-340 0 0000-00-00 00:00:00.000 0.000 00:00:00
Dry Creek Lofts AU20-NEBO-342 0 0000-00-00 00:00:00.000 0.000 00:00:00
Dry Creek Lofts AU20-NEBO-347 0 0000-00-00 00:00:00.000 0.000 00:00:00
Dry Creek Lofts AU20-NEBO-348 0 0000-00-00 00:00:00.000 0.000 00:00:00
Dry Creek Lofts AU20-NEBO-349 0 0000-00-00 00:00:00.000 0.000 00:00:00
Dry Creek Lofts AU20-NEBO-352 0 0000-00-00 00:00:00.000 0.000 00:00:00
Dry Creek Lofts AU20-NEBO-353 0 0000-00-00 00:00:00.000 0.000 00:00:00
Dry Creek Lofts AU20-NEBO-354 0 0000-00-00 00:00:00.000 0.000 00:00:00
Dry Creek Lofts AU20-NEBO-356 0 0000-00-00 00:00:00.000 0.000 00:00:00
Dry Creek Lofts AU20-NEBO-357 0 0000-00-00 00:00:00.000 0.000 00:00:00
Dry Creek Lofts AU20-NEBO-358 0 0000-00-00 00:00:00.000 0.000 00:00:00
Dry Creek Lofts AU20-NEBO-361 0 0000-00-00 00:00:00.000 0.000 00:00:00
Dry Creek Lofts AU20-NEBO-365 0 0000-00-00 00:00:00.000 0.000 00:00:00
Dry Creek Lofts AU20-UCA-301 0 0000-00-00 00:00:00.000 0.000 00:00:00
Iron Will AU20-UCA-0206 0 0000-00-00 00:00:00.000 0.000 00:00:00
Iron Will AU20-UCA-0215 0 0000-00-00 00:00:00.000 0.000 00:00:00
Iron Will AU20-UCA-0231 0 0000-00-00 00:00:00.000 0.000 00:00:00
Iron Will AU20-UCA-0259 0 0000-00-00 00:00:00.000 0.000 00:00:00
Peery Loft AU20-UCA-0013 0 0000-00-00 00:00:00.000 0.000 00:00:00
Peery Loft AU20-UCA-0015 0 0000-00-00 00:00:00.000 0.000 00:00:00
Peery Loft AU20-UCA-0022 0 0000-00-00 00:00:00.000 0.000 00:00:00
Peery Loft AU20-UCA-0032 0 0000-00-00 00:00:00.000 0.000 00:00:00
Peery Loft AU20-UCA-0035 0 0000-00-00 00:00:00.000 0.000 00:00:00
Peery Loft AU20-UCA-0038 0 0000-00-00 00:00:00.000 0.000 00:00:00
Peery Loft AU20-UCA-0049 0 0000-00-00 00:00:00.000 0.000 00:00:00
Riley Allred AU20-UCA-136 0 0000-00-00 00:00:00.000 0.000 00:00:00
Riley Allred AU20-UCA-138 0 0000-00-00 00:00:00.000 0.000 00:00:00
Riley Allred AU20-UCA-139 0 0000-00-00 00:00:00.000 0.000 00:00:00
Riley Allred AU20-UCA-141 0 0000-00-00 00:00:00.000 0.000 00:00:00
Riley Allred AU20-UCA-143 0 0000-00-00 00:00:00.000 0.000 00:00:00
Riley Allred AU20-UCA-144 0 0000-00-00 00:00:00.000 0.000 00:00:00
Riley Allred AU20-UCA-145 0 0000-00-00 00:00:00.000 0.000 00:00:00
Riley Allred AU20-UCA-148 0 0000-00-00 00:00:00.000 0.000 00:00:00
Riley Allred AU20-UCA-151 0 0000-00-00 00:00:00.000 0.000 00:00:00
Riley Allred AU20-UCA-157 0 0000-00-00 00:00:00.000 0.000 00:00:00
Riley Allred AU20-UCA-169 0 0000-00-00 00:00:00.000 0.000 00:00:00
Ross Johnson AAU20-NEBO-65 0 0000-00-00 00:00:00.000 0.000 00:00:00
Ross Johnson AU20-NEBO-39 0 0000-00-00 00:00:00.000 0.000 00:00:00
Ross Johnson AU20-NEBO-45 0 0000-00-00 00:00:00.000 0.000 00:00:00
Ross Johnson AU20-NEBO-48 0 0000-00-00 00:00:00.000 0.000 00:00:00
Ross Johnson AU20-NEBO-55 0 0000-00-00 00:00:00.000 0.000 00:00:00
Ross Johnson AU20-NEBO-64 0 0000-00-00 00:00:00.000 0.000 00:00:00
Ross Johnson AU20-NEBO-70 0 0000-00-00 00:00:00.000 0.000 00:00:00
Sherwood Loft AU20-NEBO-211 0 0000-00-00 00:00:00.000 0.000 00:00:00
Sherwood Loft AU20-NEBO-219 0 0000-00-00 00:00:00.000 0.000 00:00:00
Sherwood Loft AU20-NEBO-238 0 0000-00-00 00:00:00.000 0.000 00:00:00
Sherwood Loft AU20-NEBO-245 0 0000-00-00 00:00:00.000 0.000 00:00:00
Sherwood Loft AU20-NEBO-273 0 0000-00-00 00:00:00.000 0.000 00:00:00
Sherwood Loft AU20-NEBO-636 0 0000-00-00 00:00:00.000 0.000 00:00:00
Sherwood Loft AU20-NEBO-643 0 0000-00-00 00:00:00.000 0.000 00:00:00
Sherwood Loft AU20-UCA-413 0 0000-00-00 00:00:00.000 0.000 00:00:00
Sherwood Loft AU20-UCA-423 0 0000-00-00 00:00:00.000 0.000 00:00:00
Sherwood Loft AU20-UCA-424 0 0000-00-00 00:00:00.000 0.000 00:00:00
Sherwood Loft AU20-UCA-425 0 0000-00-00 00:00:00.000 0.000 00:00:00
Sherwood Loft AU20-UCA-426 0 0000-00-00 00:00:00.000 0.000 00:00:00
Sherwood Loft AU20-UCA-439 0 0000-00-00 00:00:00.000 0.000 00:00:00
Sherwood Loft AU20-UCA-490 0 0000-00-00 00:00:00.000 0.000 00:00:00